createdAt,value
2023-02-28T00:00:47.565Z,0.00
2023-02-28T00:01:52.862Z,0.00
2023-02-28T00:02:58.126Z,0.00
2023-02-28T00:04:03.353Z,0.00
2023-02-28T00:05:08.677Z,0.00
2023-02-28T00:06:13.933Z,0.00
2023-02-28T00:07:19.221Z,0.00
2023-02-28T00:08:24.497Z,0.00
2023-02-28T00:09:29.762Z,0.00
2023-02-28T00:10:35.028Z,0.00
2023-02-28T00:11:40.274Z,0.00
2023-02-28T00:12:45.562Z,0.00
2023-02-28T00:13:50.820Z,0.00
2023-02-28T00:14:56.113Z,0.00
2023-02-28T00:16:01.373Z,0.00
2023-02-28T00:17:06.769Z,0.00
2023-02-28T00:18:12.037Z,0.00
2023-02-28T00:19:17.273Z,0.00
2023-02-28T00:20:22.543Z,0.00
2023-02-28T00:21:28.075Z,0.00
2023-02-28T00:22:33.413Z,0.00
2023-02-28T00:23:38.716Z,0.00
2023-02-28T00:24:43.983Z,0.00
2023-02-28T00:25:49.249Z,0.00
2023-02-28T00:26:54.535Z,0.00
2023-02-28T00:27:59.827Z,0.00
2023-02-28T00:29:05.105Z,0.00
2023-02-28T00:30:10.380Z,0.00
2023-02-28T00:31:15.735Z,0.00
2023-02-28T00:32:21.007Z,0.00
2023-02-28T00:33:26.270Z,0.00
2023-02-28T00:34:31.547Z,0.00
2023-02-28T00:35:36.878Z,0.00
2023-02-28T00:36:42.159Z,0.00
2023-02-28T00:37:47.425Z,0.00
2023-02-28T00:38:52.704Z,0.00
2023-02-28T00:39:58.025Z,0.00
2023-02-28T00:41:03.307Z,0.00
2023-02-28T00:42:08.614Z,0.00
2023-02-28T00:43:13.911Z,0.00
2023-02-28T00:44:19.205Z,0.00
2023-02-28T00:45:24.480Z,0.00
2023-02-28T00:46:29.837Z,0.00
2023-02-28T00:47:35.175Z,0.00
2023-02-28T00:48:40.637Z,0.00
2023-02-28T00:49:45.929Z,0.00
2023-02-28T00:50:51.171Z,0.00
2023-02-28T00:51:56.474Z,0.00
2023-02-28T00:53:01.774Z,0.00
2023-02-28T00:54:07.063Z,0.00
2023-02-28T00:55:12.364Z,0.00
2023-02-28T00:56:17.699Z,0.00
2023-02-28T00:57:23.008Z,0.00
2023-02-28T00:58:28.292Z,0.00
2023-02-28T00:59:33.596Z,0.00
2023-02-28T01:00:38.850Z,0.00
2023-02-28T01:01:44.262Z,0.00
2023-02-28T01:02:49.524Z,0.00
2023-02-28T01:03:54.839Z,0.00
2023-02-28T01:05:00.125Z,0.00
2023-02-28T01:06:05.386Z,0.00
2023-02-28T01:07:10.667Z,0.00
2023-02-28T01:08:15.960Z,0.00
2023-02-28T01:09:21.249Z,0.00
2023-02-28T01:10:26.549Z,0.00
2023-02-28T01:11:31.947Z,0.00
2023-02-28T01:12:37.294Z,0.00
2023-02-28T01:13:42.566Z,0.00
2023-02-28T01:14:47.869Z,0.00
2023-02-28T01:15:53.234Z,0.00
2023-02-28T01:16:58.612Z,0.00
2023-02-28T01:18:03.918Z,0.00
2023-02-28T01:19:09.218Z,0.00
2023-02-28T01:20:14.523Z,0.00
2023-02-28T01:21:19.865Z,0.00
2023-02-28T01:22:25.169Z,0.00
2023-02-28T01:23:30.498Z,0.00
2023-02-28T01:24:35.797Z,0.00
2023-02-28T01:25:41.169Z,0.00
2023-02-28T01:26:46.448Z,0.00
2023-02-28T01:27:51.750Z,0.00
2023-02-28T01:28:57.107Z,0.00
2023-02-28T01:30:02.422Z,0.00
2023-02-28T01:31:07.713Z,0.00
2023-02-28T01:32:13.204Z,0.00
2023-02-28T01:33:18.495Z,0.00
2023-02-28T01:34:23.819Z,0.00
2023-02-28T01:35:29.151Z,0.00
2023-02-28T01:36:34.470Z,0.00
2023-02-28T01:37:39.828Z,0.00
2023-02-28T01:38:45.140Z,0.00
2023-02-28T01:39:50.462Z,0.00
2023-02-28T01:40:55.805Z,0.00
2023-02-28T01:42:01.091Z,0.00
2023-02-28T01:43:06.432Z,0.00
2023-02-28T01:44:11.719Z,0.00
2023-02-28T01:45:17.093Z,0.00
2023-02-28T01:46:22.422Z,0.00
2023-02-28T01:47:27.722Z,0.00
2023-02-28T01:48:33.044Z,0.00
2023-02-28T01:49:38.387Z,0.00
2023-02-28T01:50:43.718Z,0.00
2023-02-28T01:51:49.037Z,0.00
2023-02-28T01:52:54.378Z,0.00
2023-02-28T01:53:59.705Z,0.00
2023-02-28T01:55:05.045Z,0.00
2023-02-28T01:56:10.376Z,0.00
2023-02-28T01:57:15.701Z,0.00
2023-02-28T01:58:21.016Z,0.00
2023-02-28T01:59:26.358Z,0.00
2023-02-28T02:00:31.693Z,0.00
2023-02-28T02:01:37.631Z,0.00
2023-02-28T08:04:39.789Z,4712.00
2023-02-28T08:05:45.211Z,4768.00
2023-02-28T08:06:50.624Z,4876.00
2023-02-28T08:07:56.172Z,4884.00
2023-02-28T08:09:01.637Z,4812.00
2023-02-28T08:10:07.063Z,4712.00
2023-02-28T08:11:12.446Z,4724.00
2023-02-28T08:12:18.020Z,4648.00
2023-02-28T08:13:23.362Z,4664.00
2023-02-28T08:14:28.905Z,4700.00
2023-02-28T08:15:34.370Z,5028.00
2023-02-28T08:16:39.956Z,5332.00
2023-02-28T08:17:45.583Z,5460.00
2023-02-28T08:18:51.121Z,5304.00
2023-02-28T08:19:56.658Z,5380.00
2023-02-28T08:21:02.203Z,5644.00
2023-02-28T08:22:07.772Z,5764.00
2023-02-28T08:23:13.305Z,5996.00
2023-02-28T08:24:18.855Z,5952.00
2023-02-28T08:25:24.408Z,6056.00
2023-02-28T08:26:29.966Z,6068.00
2023-02-28T08:27:35.528Z,5932.00
2023-02-28T08:28:41.080Z,6216.00
2023-02-28T08:29:46.621Z,6420.00
2023-02-28T08:30:52.149Z,6736.00
2023-02-28T08:31:57.776Z,7184.00
2023-02-28T08:33:03.397Z,7572.00
2023-02-28T08:34:08.960Z,7896.00
2023-02-28T08:35:14.473Z,7740.00
2023-02-28T08:36:20.025Z,7880.00
2023-02-28T08:37:25.523Z,8176.00
2023-02-28T08:38:31.044Z,8200.00
2023-02-28T08:39:36.521Z,8308.00
2023-02-28T08:40:41.996Z,8720.00
2023-02-28T08:41:51.141Z,9144.00
2023-02-28T08:42:58.798Z,9336.00
2023-02-28T08:44:04.255Z,9384.00
2023-02-28T08:45:09.696Z,9384.00
2023-02-28T08:46:15.236Z,9340.00
2023-02-28T08:47:20.721Z,9124.00
2023-02-28T08:48:26.170Z,9364.00
2023-02-28T08:49:31.588Z,9416.00
2023-02-28T08:50:37.011Z,9068.00
2023-02-28T08:51:42.435Z,9384.00
2023-02-28T08:52:47.859Z,9808.00
2023-02-28T08:53:53.262Z,9996.00
2023-02-28T08:54:58.716Z,9848.00
2023-02-28T08:56:04.104Z,9608.00
2023-02-28T08:57:09.497Z,9048.00
2023-02-28T08:58:14.949Z,8996.00
2023-02-28T08:59:20.330Z,9128.00
2023-02-28T09:00:25.766Z,9340.00
2023-02-28T09:01:31.608Z,9480.00
2023-02-28T09:02:37.180Z,9900.00
2023-02-28T09:03:42.611Z,10044.00
2023-02-28T09:04:47.952Z,10028.00
2023-02-28T09:05:53.303Z,9872.00
2023-02-28T09:06:58.662Z,10084.00
2023-02-28T09:08:04.047Z,10312.00
2023-02-28T09:09:09.370Z,10588.00
2023-02-28T09:10:14.768Z,11108.00
2023-02-28T09:11:20.157Z,11440.00
2023-02-28T09:12:25.518Z,11372.00
2023-02-28T09:13:30.949Z,11176.00
2023-02-28T09:14:36.286Z,10704.00
2023-02-28T09:15:41.627Z,10120.00
2023-02-28T09:16:46.976Z,10036.00
2023-02-28T09:17:52.297Z,10236.00
2023-02-28T09:18:57.660Z,9932.00
2023-02-28T09:20:03.006Z,9952.00
2023-02-28T09:21:08.289Z,10136.00
2023-02-28T09:22:13.616Z,9848.00
2023-02-28T09:23:18.942Z,9648.00
2023-02-28T09:24:24.288Z,10080.00
2023-02-28T09:25:29.618Z,10464.00
2023-02-28T09:26:42.627Z,10616.00
2023-02-28T09:27:46.267Z,10900.00
2023-02-28T09:28:51.587Z,10860.00
2023-02-28T09:29:56.986Z,10712.00
2023-02-28T09:31:02.436Z,10544.00
2023-02-28T09:32:07.877Z,10844.00
2023-02-28T09:33:13.304Z,11200.00
2023-02-28T09:34:18.825Z,11480.00
2023-02-28T09:35:24.281Z,11252.00
2023-02-28T09:36:43.314Z,10972.00
2023-02-28T09:37:41.139Z,10952.00
2023-02-28T09:38:48.117Z,11684.00
2023-02-28T09:39:54.171Z,12304.00
2023-02-28T09:40:59.613Z,12184.00
2023-02-28T09:42:05.111Z,11988.00
2023-02-28T09:43:10.591Z,11904.00
2023-02-28T09:44:16.084Z,11828.00
2023-02-28T09:45:21.553Z,11956.00
2023-02-28T09:46:27.164Z,12292.00
2023-02-28T09:47:32.680Z,12836.00
2023-02-28T09:48:40.767Z,12884.00
2023-02-28T09:49:46.660Z,12724.00
2023-02-28T09:50:52.209Z,12680.00
2023-02-28T09:51:57.781Z,13184.00
2023-02-28T09:53:03.358Z,13684.00
2023-02-28T09:54:08.923Z,13596.00
2023-02-28T09:55:14.489Z,13516.00
2023-02-28T09:56:20.054Z,13752.00
2023-02-28T09:57:25.601Z,14300.00
2023-02-28T09:58:31.127Z,14524.00
2023-02-28T09:59:36.673Z,14688.00
2023-02-28T10:00:42.235Z,14928.00
2023-02-28T10:01:47.773Z,14952.00
2023-02-28T10:02:53.261Z,14572.00
2023-02-28T10:03:58.781Z,14404.00
2023-02-28T10:05:04.385Z,14332.00
2023-02-28T10:06:09.861Z,13804.00
2023-02-28T10:07:15.357Z,13812.00
2023-02-28T10:08:20.890Z,13444.00
2023-02-28T10:09:26.400Z,13368.00
2023-02-28T10:10:31.905Z,13464.00
2023-02-28T10:11:37.408Z,13712.00
2023-02-28T10:12:42.925Z,13924.00
2023-02-28T10:13:48.440Z,14192.00
2023-02-28T10:14:53.945Z,14544.00
2023-02-28T10:15:59.485Z,15056.00
2023-02-28T10:17:04.985Z,15508.00
2023-02-28T10:18:11.606Z,15608.00
2023-02-28T10:19:17.626Z,15500.00
2023-02-28T10:20:23.115Z,15788.00
2023-02-28T10:21:28.609Z,16020.00
2023-02-28T10:22:34.106Z,16288.00
2023-02-28T10:23:39.594Z,16860.00
2023-02-28T10:24:45.075Z,17408.00
2023-02-28T10:25:50.556Z,17792.00
2023-02-28T10:26:56.022Z,18080.00
2023-02-28T10:28:01.494Z,18400.00
2023-02-28T10:29:06.929Z,18688.00
2023-02-28T10:30:12.371Z,19200.00
2023-02-28T10:31:17.850Z,19776.00
2023-02-28T10:32:23.248Z,20256.00
2023-02-28T10:33:28.744Z,20640.00
2023-02-28T10:34:34.106Z,20576.00
2023-02-28T10:35:39.475Z,21152.00
2023-02-28T10:36:44.833Z,22176.00
2023-02-28T10:37:50.182Z,22080.00
2023-02-28T10:38:55.523Z,21696.00
2023-02-28T10:40:00.900Z,22144.00
2023-02-28T10:41:06.262Z,23424.00
2023-02-28T10:42:11.690Z,25216.00
2023-02-28T10:43:17.120Z,26016.00
2023-02-28T10:44:22.542Z,26208.00
2023-02-28T10:45:27.908Z,27392.00
2023-02-28T10:46:33.559Z,27232.00
2023-02-28T10:47:39.013Z,26464.00
2023-02-28T10:48:44.516Z,26784.00
2023-02-28T10:49:50.093Z,27456.00
2023-02-28T10:50:55.611Z,26048.00
2023-02-28T10:52:01.350Z,24000.00
2023-02-28T10:53:06.905Z,22880.00
2023-02-28T10:54:12.469Z,23008.00
2023-02-28T10:55:18.013Z,25280.00
2023-02-28T10:56:23.592Z,26144.00
2023-02-28T10:57:29.136Z,26016.00
2023-02-28T10:58:34.686Z,27712.00
2023-02-28T10:59:40.220Z,28960.00
2023-02-28T11:00:45.740Z,32704.00
2023-02-28T11:01:51.364Z,29504.00
2023-02-28T11:02:56.905Z,38080.00
2023-02-28T11:04:02.381Z,35872.00
2023-02-28T11:05:07.873Z,34624.00
2023-02-28T11:06:13.316Z,41824.00
2023-02-28T11:07:20.656Z,39200.00
2023-02-28T11:08:27.508Z,35424.00
2023-02-28T11:09:32.844Z,39424.00
2023-02-28T11:10:38.297Z,39296.00
2023-02-28T11:11:43.855Z,48096.00
2023-02-28T11:12:52.885Z,48864.00
2023-02-28T11:13:59.046Z,33152.00
2023-02-28T11:15:04.521Z,45536.00
2023-02-28T11:16:10.053Z,47392.00
2023-02-28T11:17:15.468Z,78464.00
2023-02-28T11:18:20.874Z,78400.00
2023-02-28T11:19:26.238Z,35680.00
2023-02-28T11:20:31.629Z,30336.00
2023-02-28T11:21:36.953Z,77472.00
2023-02-28T11:22:42.414Z,42400.00
2023-02-28T11:23:47.869Z,36864.00
2023-02-28T11:24:53.399Z,31968.00
2023-02-28T11:25:58.938Z,28512.00
2023-02-28T11:27:04.449Z,31872.00
2023-02-28T11:28:09.935Z,32512.00
2023-02-28T11:29:15.367Z,64448.00
2023-02-28T11:30:20.790Z,47136.00
2023-02-28T11:31:26.312Z,49920.00
2023-02-28T11:32:31.892Z,82496.00
2023-02-28T11:33:37.453Z,42752.00
2023-02-28T11:34:42.935Z,50496.00
2023-02-28T11:35:48.411Z,32768.00
2023-02-28T11:36:53.809Z,29536.00
2023-02-28T11:37:59.241Z,44384.00
2023-02-28T11:39:04.687Z,75968.00
2023-02-28T11:40:10.082Z,30976.00
2023-02-28T11:41:15.473Z,33216.00
2023-02-28T11:42:20.884Z,38720.00
2023-02-28T11:43:26.295Z,33888.00
2023-02-28T11:44:31.738Z,31872.00
2023-02-28T11:45:37.200Z,44992.00
2023-02-28T11:46:42.693Z,76064.00
2023-02-28T11:47:48.114Z,71552.00
2023-02-28T11:48:53.523Z,75264.00
2023-02-28T11:49:58.860Z,36512.00
2023-02-28T11:51:04.296Z,69280.00
2023-02-28T11:52:09.805Z,26368.00
2023-02-28T11:53:15.380Z,28064.00
2023-02-28T11:54:20.879Z,29312.00
2023-02-28T11:55:26.366Z,39232.00
2023-02-28T11:56:31.790Z,26720.00
2023-02-28T11:57:37.158Z,27264.00
2023-02-28T11:58:42.483Z,24992.00
2023-02-28T11:59:47.862Z,22304.00
2023-02-28T12:00:53.203Z,26304.00
2023-02-28T12:01:58.599Z,27264.00
2023-02-28T12:03:04.123Z,66176.00
2023-02-28T12:04:09.538Z,67680.00
2023-02-28T12:05:14.951Z,49184.00
2023-02-28T12:06:20.318Z,62176.00
2023-02-28T12:07:25.659Z,64192.00
2023-02-28T12:08:31.148Z,58560.00
2023-02-28T12:09:36.668Z,41408.00
2023-02-28T12:10:42.195Z,28608.00
2023-02-28T12:11:47.728Z,65152.00
2023-02-28T12:12:53.198Z,67296.00
2023-02-28T12:13:58.648Z,75616.00
2023-02-28T12:15:04.106Z,74400.00
2023-02-28T12:16:09.563Z,76032.00
2023-02-28T12:17:14.912Z,81440.00
2023-02-28T12:18:20.460Z,54688.00
2023-02-28T12:19:25.987Z,30016.00
2023-02-28T12:20:31.514Z,59840.00
2023-02-28T12:21:37.062Z,24800.00
2023-02-28T12:22:42.615Z,63136.00
2023-02-28T12:23:48.203Z,38464.00
2023-02-28T12:24:53.719Z,24416.00
2023-02-28T12:25:59.151Z,58720.00
2023-02-28T12:27:04.507Z,31136.00
2023-02-28T12:28:09.916Z,22432.00
2023-02-28T12:29:15.252Z,53728.00
2023-02-28T12:30:20.638Z,71712.00
2023-02-28T12:31:26.143Z,28096.00
2023-02-28T12:32:31.569Z,22528.00
2023-02-28T12:33:36.955Z,25056.00
2023-02-28T12:34:42.375Z,20896.00
2023-02-28T12:35:47.872Z,20032.00
2023-02-28T12:36:53.298Z,67008.00
2023-02-28T12:37:58.765Z,65504.00
2023-02-28T12:39:04.321Z,61248.00
2023-02-28T12:40:09.806Z,61472.00
2023-02-28T12:41:15.265Z,63136.00
2023-02-28T12:42:20.682Z,48352.00
2023-02-28T12:43:26.133Z,66336.00
2023-02-28T12:44:31.597Z,47552.00
2023-02-28T12:45:37.132Z,50400.00
2023-02-28T12:46:42.653Z,22880.00
2023-02-28T12:47:48.086Z,68384.00
2023-02-28T12:48:53.537Z,66144.00
2023-02-28T12:49:58.997Z,69152.00
2023-02-28T12:51:04.377Z,70848.00
2023-02-28T12:52:09.719Z,67136.00
2023-02-28T12:53:15.119Z,65568.00
2023-02-28T12:54:20.621Z,62272.00
2023-02-28T12:55:26.253Z,38048.00
2023-02-28T12:56:31.838Z,59392.00
2023-02-28T12:57:37.320Z,19456.00
2023-02-28T12:58:42.856Z,58624.00
2023-02-28T12:59:48.414Z,19904.00
2023-02-28T13:00:53.972Z,37184.00
2023-02-28T13:01:59.390Z,26400.00
2023-02-28T13:03:04.820Z,39968.00
2023-02-28T13:04:10.162Z,46848.00
2023-02-28T13:05:15.574Z,53824.00
2023-02-28T13:06:20.949Z,27456.00
2023-02-28T13:07:26.315Z,40864.00
2023-02-28T13:08:31.690Z,24128.00
2023-02-28T13:09:37.042Z,46080.00
2023-02-28T13:10:42.400Z,61408.00
2023-02-28T13:11:47.791Z,66848.00
2023-02-28T13:12:53.127Z,47808.00
2023-02-28T13:13:58.521Z,20896.00
2023-02-28T13:15:03.861Z,38016.00
2023-02-28T13:16:09.290Z,22048.00
2023-02-28T13:17:14.775Z,57952.00
2023-02-28T13:18:20.193Z,52192.00
2023-02-28T13:19:25.613Z,52672.00
2023-02-28T13:20:31.055Z,48672.00
2023-02-28T13:21:36.495Z,49248.00
2023-02-28T13:22:41.951Z,49056.00
2023-02-28T13:23:47.369Z,54912.00
2023-02-28T13:24:52.754Z,53600.00
2023-02-28T13:25:58.087Z,57824.00
2023-02-28T13:27:03.468Z,55136.00
2023-02-28T13:28:08.979Z,55488.00
2023-02-28T13:29:14.624Z,42496.00
2023-02-28T13:30:20.134Z,45280.00
2023-02-28T13:31:25.653Z,42240.00
2023-02-28T13:32:31.152Z,46496.00
2023-02-28T13:33:36.650Z,49952.00
2023-02-28T13:34:42.073Z,46080.00
2023-02-28T13:35:47.590Z,48064.00
2023-02-28T13:36:53.125Z,49056.00
2023-02-28T13:37:58.550Z,51104.00
2023-02-28T13:39:03.967Z,47072.00
2023-02-28T13:40:09.481Z,40896.00
2023-02-28T13:41:14.921Z,50592.00
2023-02-28T13:42:20.405Z,47584.00
2023-02-28T13:43:35.657Z,47840.00
2023-02-28T13:44:37.169Z,43552.00
2023-02-28T13:45:42.600Z,44608.00
2023-02-28T13:46:48.223Z,43968.00
2023-02-28T13:47:53.611Z,42560.00
2023-02-28T13:48:59.005Z,41184.00
2023-02-28T13:50:04.396Z,41696.00
2023-02-28T13:51:09.812Z,41568.00
2023-02-28T13:52:15.163Z,40736.00
2023-02-28T13:53:20.550Z,40352.00
2023-02-28T13:54:25.932Z,38880.00
2023-02-28T13:55:31.284Z,38432.00
2023-02-28T13:56:36.634Z,38112.00
2023-02-28T13:57:41.989Z,39040.00
2023-02-28T13:58:47.411Z,37600.00
2023-02-28T13:59:52.735Z,36000.00
2023-02-28T14:00:58.220Z,35392.00
2023-02-28T14:02:03.560Z,19104.00
2023-02-28T14:03:09.031Z,36480.00
2023-02-28T14:04:14.386Z,37920.00
2023-02-28T14:05:19.793Z,36704.00
2023-02-28T14:06:25.234Z,34272.00
2023-02-28T14:07:34.376Z,30624.00
2023-02-28T14:08:41.920Z,16044.00
2023-02-28T14:09:47.357Z,28032.00
2023-02-28T14:10:52.805Z,26336.00
2023-02-28T14:11:58.348Z,24832.00
2023-02-28T14:13:03.828Z,30112.00
2023-02-28T14:14:09.332Z,30336.00
2023-02-28T14:15:14.855Z,30176.00
2023-02-28T14:16:20.394Z,30368.00
2023-02-28T14:17:25.898Z,30656.00
2023-02-28T14:18:31.410Z,30112.00
2023-02-28T14:19:36.959Z,29664.00
2023-02-28T14:20:42.535Z,28800.00
2023-02-28T14:21:48.011Z,29344.00
2023-02-28T14:22:53.522Z,28832.00
2023-02-28T14:23:59.049Z,28768.00
2023-02-28T14:25:04.521Z,27360.00
2023-02-28T14:26:10.007Z,25504.00
2023-02-28T14:27:15.473Z,24000.00
2023-02-28T14:28:20.957Z,24032.00
2023-02-28T14:29:26.448Z,24928.00
2023-02-28T14:30:33.289Z,24000.00
2023-02-28T14:31:39.760Z,17984.00
2023-02-28T14:32:45.223Z,20512.00
2023-02-28T14:33:50.764Z,12544.00
2023-02-28T14:34:56.296Z,22048.00
2023-02-28T14:36:01.876Z,22848.00
2023-02-28T14:37:07.261Z,23968.00
2023-02-28T14:38:12.718Z,24672.00
2023-02-28T14:39:18.221Z,25312.00
2023-02-28T14:40:23.713Z,25952.00
2023-02-28T14:41:29.196Z,25280.00
2023-02-28T14:42:34.759Z,24704.00
2023-02-28T14:43:40.310Z,22848.00
2023-02-28T14:44:45.836Z,22176.00
2023-02-28T14:45:51.363Z,16412.00
2023-02-28T14:46:56.983Z,19328.00
2023-02-28T14:48:02.560Z,22720.00
2023-02-28T14:49:08.105Z,21760.00
2023-02-28T14:50:13.612Z,22752.00
2023-02-28T14:51:19.190Z,22400.00
2023-02-28T14:52:24.681Z,20768.00
2023-02-28T14:53:30.135Z,20160.00
2023-02-28T14:54:35.550Z,21632.00
2023-02-28T14:55:41.029Z,21792.00
2023-02-28T14:56:46.449Z,21568.00
2023-02-28T14:57:51.890Z,20608.00
2023-02-28T14:58:57.265Z,19552.00
2023-02-28T15:00:02.594Z,19264.00
2023-02-28T15:01:07.922Z,18688.00
2023-02-28T15:02:13.237Z,18592.00
2023-02-28T15:03:18.574Z,17504.00
2023-02-28T15:04:23.961Z,18176.00
2023-02-28T15:05:29.252Z,17536.00
2023-02-28T15:06:34.609Z,16736.00
2023-02-28T15:07:39.935Z,16252.00
2023-02-28T15:08:45.269Z,16144.00
2023-02-28T15:09:50.628Z,16736.00
2023-02-28T15:10:56.000Z,16928.00
2023-02-28T15:12:01.438Z,16324.00
2023-02-28T15:13:06.812Z,15904.00
2023-02-28T15:14:12.205Z,15496.00
2023-02-28T15:15:17.649Z,14940.00
2023-02-28T15:16:23.148Z,10740.00
2023-02-28T15:17:28.672Z,14204.00
2023-02-28T15:18:34.092Z,13776.00
2023-02-28T15:19:39.608Z,13484.00
2023-02-28T15:20:45.084Z,13248.00
2023-02-28T15:21:50.565Z,13308.00
2023-02-28T15:22:56.040Z,13680.00
2023-02-28T15:24:01.544Z,13580.00
2023-02-28T15:25:07.064Z,13184.00
2023-02-28T15:26:12.609Z,13048.00
2023-02-28T15:27:18.152Z,13068.00
2023-02-28T15:28:23.745Z,12976.00
2023-02-28T15:29:29.183Z,12604.00
2023-02-28T15:30:34.636Z,12212.00
2023-02-28T15:31:55.991Z,10284.00
2023-02-28T15:32:51.418Z,12080.00
2023-02-28T15:33:56.742Z,11948.00
2023-02-28T15:35:02.124Z,11476.00
2023-02-28T15:36:07.549Z,11700.00
2023-02-28T15:37:12.981Z,12248.00
2023-02-28T15:38:18.462Z,11896.00
2023-02-28T15:39:23.863Z,11752.00
2023-02-28T15:40:29.275Z,11820.00
2023-02-28T15:41:34.709Z,11808.00
2023-02-28T15:42:40.179Z,11472.00
2023-02-28T15:43:45.632Z,11108.00
2023-02-28T15:44:51.129Z,10824.00
2023-02-28T15:45:56.638Z,10700.00
2023-02-28T15:47:02.116Z,10616.00
2023-02-28T15:48:14.183Z,10512.00
2023-02-28T15:49:19.029Z,10220.00
2023-02-28T15:50:24.529Z,10040.00
2023-02-28T15:51:30.327Z,9732.00
2023-02-28T15:52:35.982Z,9412.00
2023-02-28T15:53:41.536Z,9152.00
2023-02-28T15:54:47.109Z,8972.00
2023-02-28T15:55:52.604Z,8768.00
2023-02-28T15:56:58.054Z,8560.00
2023-02-28T15:58:03.443Z,8396.00
2023-02-28T15:59:08.781Z,8112.00
2023-02-28T16:00:14.137Z,8068.00
2023-02-28T16:01:19.547Z,7972.00
2023-02-28T16:02:24.982Z,7840.00
2023-02-28T16:03:30.413Z,7684.00
2023-02-28T16:04:35.759Z,7508.00
2023-02-28T16:05:41.131Z,7400.00
2023-02-28T16:06:46.543Z,7240.00
2023-02-28T16:07:51.944Z,7068.00
2023-02-28T16:08:57.382Z,6908.00
2023-02-28T16:10:02.827Z,6716.00
2023-02-28T16:11:08.269Z,6420.00
2023-02-28T16:12:13.732Z,6036.00
2023-02-28T16:13:19.467Z,5780.00
2023-02-28T16:14:24.963Z,5616.00
2023-02-28T16:15:30.490Z,5480.00
2023-02-28T16:16:36.109Z,5340.00
2023-02-28T16:17:41.604Z,5204.00
2023-02-28T16:18:47.073Z,5068.00
2023-02-28T16:19:52.426Z,4940.00
2023-02-28T16:20:57.763Z,4808.00
2023-02-28T16:22:03.138Z,4664.00
2023-02-28T16:23:08.552Z,4520.00
2023-02-28T16:24:14.156Z,4372.00
2023-02-28T16:25:19.567Z,4236.00
2023-02-28T16:26:25.053Z,4084.00
2023-02-28T16:27:30.491Z,3948.00
2023-02-28T16:28:36.019Z,3816.00
2023-02-28T16:29:41.529Z,3684.00
2023-02-28T16:30:47.116Z,3536.00
2023-02-28T16:31:52.646Z,3392.00
2023-02-28T16:32:58.173Z,3248.00
2023-02-28T16:34:03.775Z,3104.00
2023-02-28T16:35:09.303Z,2956.00
2023-02-28T16:36:14.884Z,2820.00
2023-02-28T16:37:20.306Z,2684.00
2023-02-28T16:38:25.777Z,2564.00
2023-02-28T16:39:31.258Z,2444.00
2023-02-28T16:40:36.670Z,2324.00
2023-02-28T16:41:42.036Z,2212.00
2023-02-28T16:42:47.440Z,2104.00
2023-02-28T16:43:52.902Z,1988.00
2023-02-28T16:44:58.390Z,1872.00
2023-02-28T16:46:03.947Z,1756.00
2023-02-28T16:47:09.665Z,1640.00
2023-02-28T16:48:15.062Z,1532.00
2023-02-28T16:49:20.395Z,1428.00
2023-02-28T16:50:25.766Z,1328.00
2023-02-28T16:51:33.497Z,1228.00
2023-02-28T16:52:40.400Z,1128.00
2023-02-28T16:53:45.786Z,1040.00
2023-02-28T16:54:51.166Z,956.00
2023-02-28T16:55:56.561Z,876.00
2023-02-28T16:57:01.968Z,804.00
2023-02-28T16:58:07.407Z,728.00
2023-02-28T16:59:12.821Z,668.00
2023-02-28T17:00:18.286Z,608.00
2023-02-28T17:01:23.770Z,560.00
2023-02-28T17:02:29.351Z,504.00
2023-02-28T17:03:34.894Z,456.00
2023-02-28T17:04:40.344Z,408.00
2023-02-28T17:05:45.807Z,372.00
2023-02-28T17:06:51.324Z,328.00
2023-02-28T17:07:56.777Z,292.00
2023-02-28T17:09:02.284Z,256.00
2023-02-28T17:10:07.751Z,220.00
2023-02-28T17:11:13.251Z,192.00
2023-02-28T17:12:18.736Z,168.00
2023-02-28T17:13:24.336Z,144.00
2023-02-28T17:14:29.837Z,120.00
2023-02-28T17:15:35.461Z,100.00
2023-02-28T17:16:41.111Z,80.00
2023-02-28T17:17:46.610Z,72.00
2023-02-28T17:18:52.176Z,60.00
2023-02-28T17:19:57.693Z,48.00
2023-02-28T17:21:03.238Z,36.00
2023-02-28T17:22:08.772Z,32.00
2023-02-28T17:23:14.377Z,24.00
2023-02-28T17:24:30.358Z,24.00
2023-02-28T17:25:31.410Z,16.00
2023-02-28T17:26:36.943Z,16.00
2023-02-28T17:27:42.490Z,12.00
2023-02-28T17:28:48.008Z,12.00
2023-02-28T17:29:53.484Z,8.00
2023-02-28T17:30:59.030Z,4.00
2023-02-28T17:32:17.028Z,4.00
2023-02-28T17:33:15.832Z,4.00
2023-02-28T17:34:21.312Z,4.00
2023-02-28T17:35:26.817Z,4.00
2023-02-28T17:36:32.697Z,0.00
2023-02-28T17:37:38.423Z,4.00
2023-02-28T17:38:43.953Z,4.00
2023-02-28T17:39:49.502Z,0.00
2023-02-28T17:40:54.969Z,0.00
2023-02-28T17:42:00.421Z,0.00
2023-02-28T17:43:05.915Z,0.00
2023-02-28T17:44:11.231Z,0.00
2023-02-28T17:45:16.578Z,0.00
2023-02-28T17:46:22.026Z,0.00
2023-02-28T17:47:27.390Z,0.00
2023-02-28T17:48:32.881Z,0.00
2023-02-28T17:49:38.198Z,0.00
2023-02-28T17:50:43.507Z,0.00
2023-02-28T17:51:48.849Z,0.00
2023-02-28T17:52:54.185Z,0.00
2023-02-28T17:53:59.523Z,0.00
2023-02-28T17:55:04.850Z,0.00
2023-02-28T17:56:10.221Z,0.00
2023-02-28T17:57:15.555Z,0.00
2023-02-28T17:58:20.912Z,0.00
2023-02-28T17:59:26.235Z,0.00
2023-02-28T18:00:31.574Z,0.00
2023-02-28T18:01:36.999Z,0.00
2023-02-28T18:02:42.401Z,0.00
2023-02-28T18:03:47.814Z,0.00
2023-02-28T18:04:53.163Z,0.00
2023-02-28T18:05:58.576Z,0.00
2023-02-28T18:07:03.989Z,0.00
2023-02-28T18:08:09.487Z,0.00
2023-02-28T18:09:14.876Z,0.00
2023-02-28T18:10:20.373Z,0.00
2023-02-28T18:11:25.878Z,0.00
2023-02-28T18:12:31.578Z,0.00
2023-02-28T18:13:36.949Z,0.00
2023-02-28T18:14:42.355Z,0.00
2023-02-28T18:15:47.773Z,0.00
2023-02-28T18:16:53.189Z,0.00
2023-02-28T18:17:58.601Z,0.00
2023-02-28T18:19:04.005Z,0.00
2023-02-28T18:20:09.404Z,0.00
2023-02-28T18:21:14.792Z,0.00
2023-02-28T18:22:20.198Z,0.00
2023-02-28T18:23:25.693Z,0.00
2023-02-28T18:24:31.089Z,0.00
2023-02-28T18:25:36.528Z,0.00
2023-02-28T18:26:41.928Z,0.00
2023-02-28T18:27:47.342Z,0.00
2023-02-28T18:28:53.061Z,0.00
2023-02-28T18:29:58.464Z,0.00
2023-02-28T18:31:03.925Z,0.00
2023-02-28T18:32:09.374Z,0.00
2023-02-28T18:33:14.793Z,0.00
2023-02-28T18:34:20.235Z,0.00
2023-02-28T18:35:25.677Z,0.00
2023-02-28T18:36:31.359Z,0.00
2023-02-28T18:37:36.951Z,0.00
2023-02-28T18:38:42.392Z,0.00
2023-02-28T18:39:47.811Z,0.00
2023-02-28T18:40:53.244Z,0.00
2023-02-28T18:41:58.693Z,0.00
2023-02-28T18:43:04.135Z,0.00
2023-02-28T18:44:18.954Z,0.00
2023-02-28T18:45:20.921Z,0.00
2023-02-28T18:46:26.413Z,0.00
2023-02-28T18:47:31.850Z,0.00
2023-02-28T18:48:37.331Z,0.00
2023-02-28T18:49:42.774Z,0.00
2023-02-28T18:50:48.221Z,0.00
2023-02-28T18:51:53.719Z,0.00
2023-02-28T18:52:59.191Z,0.00
2023-02-28T18:54:04.642Z,0.00
2023-02-28T18:55:10.106Z,0.00
2023-02-28T18:56:15.589Z,0.00
2023-02-28T18:57:21.030Z,0.00
2023-02-28T18:58:26.514Z,0.00
2023-02-28T18:59:31.983Z,0.00
2023-02-28T19:00:37.512Z,0.00
2023-02-28T19:01:42.995Z,0.00
2023-02-28T19:02:48.432Z,0.00
2023-02-28T19:03:54.019Z,0.00
2023-02-28T19:04:59.477Z,0.00
2023-02-28T19:06:04.940Z,0.00
2023-02-28T19:07:10.431Z,0.00
2023-02-28T19:08:15.916Z,0.00
2023-02-28T19:09:21.401Z,0.00
2023-02-28T19:10:26.870Z,0.00
2023-02-28T19:11:32.339Z,0.00
2023-02-28T19:12:37.833Z,0.00
2023-02-28T19:13:43.325Z,0.00
2023-02-28T19:14:48.813Z,0.00
2023-02-28T19:15:57.246Z,0.00
2023-02-28T19:17:03.156Z,0.00
2023-02-28T19:18:08.702Z,0.00
2023-02-28T19:19:14.202Z,0.00
2023-02-28T19:20:19.773Z,0.00
2023-02-28T19:21:25.293Z,0.00
2023-02-28T19:22:30.797Z,0.00
2023-02-28T19:23:36.329Z,0.00
2023-02-28T19:24:41.856Z,0.00
2023-02-28T19:25:47.353Z,0.00